Time;durP1;ratioP1;P1;durP2;ratioP2;P2;SDS_P1;SDS_P2;PMS_P1;PMS_P2;Temp;Humidity;BMP_temperature;BMP_pressure;BME280_temperature;BME280_humidity;BME280_pressure;Samples;Min_cycle;Max_cycle;Signal;HPM_P1;HPM_P2
2021/06/18 00:04:29;;;;;;;4.18;3.38;;;;;;;17.95;52.26;100231.12;254532;1104;117015;-73
2021/06/18 00:09:31;;;;;;;3.00;2.80;;;;;;;17.89;52.55;100229.50;254474;1097;116378;-73
2021/06/18 00:14:34;;;;;;;3.53;3.07;;;;;;;17.81;52.65;100218.16;254185;1103;213409;-73
2021/06/18 00:19:38;;;;;;;4.23;3.73;;;;;;;17.75;53.17;100218.43;254292;1097;116850;-71
2021/06/18 00:24:41;;;;;;;3.90;3.50;;;;;;;17.64;53.59;100223.00;254416;1101;116226;-72
2021/06/18 00:29:45;;;;;;;4.57;2.87;;;;;;;17.54;53.58;100220.30;254497;1104;115447;-72
2021/06/18 00:34:48;;;;;;;4.03;3.33;;;;;;;17.48;54.54;100224.05;255676;1103;116503;-71
2021/06/18 00:39:52;;;;;;;2.85;2.60;;;;;;;17.43;54.60;100237.52;254270;1103;115540;-73
2021/06/18 00:44:56;;;;;;;10.15;3.68;;;;;;;17.35;54.83;100232.68;254372;1104;114821;-73
2021/06/18 00:49:59;;;;;;;3.15;2.95;;;;;;;17.30;54.90;100224.58;255017;1104;115913;-73
2021/06/18 00:55:02;;;;;;;4.83;3.23;;;;;;;17.25;55.34;100228.07;255232;1104;115484;-72
2021/06/18 01:00:08;;;;;;;4.18;3.40;;;;;;;17.20;55.67;100228.05;255133;1104;115441;-73
2021/06/18 01:05:15;;;;;;;4.40;3.35;;;;;;;17.11;56.10;100217.02;255635;1102;115645;-73
2021/06/18 01:10:18;;;;;;;;;;;;;;;17.06;55.69;100217.00;254565;1103;115645;-73
2021/06/18 01:15:32;;;;;;;4.20;3.90;;;;;;;16.98;56.77;100214.81;256593;1102;103321;-73
2021/06/18 01:20:44;;;;;;;4.28;3.88;;;;;;;16.94;56.64;100216.41;255354;1104;115734;-73
2021/06/18 01:26:00;;;;;;;4.98;3.80;;;;;;;16.75;56.65;100213.40;255256;1104;115445;-73
2021/06/18 01:31:05;;;;;;;3.73;3.43;;;;;;;16.45;56.81;100218.62;254664;1103;115855;-72
2021/06/18 01:36:11;;;;;;;6.13;3.08;;;;;;;16.21;57.24;100209.31;254731;1104;115896;-72
2021/06/18 01:41:20;;;;;;;3.18;2.88;;;;;;;15.90;58.03;100200.27;255052;1102;115675;-72
2021/06/18 01:46:28;;;;;;;7.68;3.68;;;;;;;15.67;58.52;100212.98;254766;1103;115665;-72
2021/06/18 01:51:33;;;;;;;6.45;3.75;;;;;;;15.60;59.38;100220.44;255084;1104;116432;-74
2021/06/18 01:56:40;;;;;;;5.08;4.43;;;;;;;15.59;59.80;100221.53;255149;1101;117127;-76
2021/06/18 02:01:47;;;;;;;4.05;3.43;;;;;;;15.49;59.74;100221.40;254768;1101;117583;-73
2021/06/18 02:06:53;;;;;;;4.03;3.13;;;;;;;15.33;59.48;100222.31;254497;1102;116533;-75
2021/06/18 02:11:56;;;;;;;9.23;5.60;;;;;;;15.26;60.20;100232.47;254454;1097;114808;-76
2021/06/18 02:17:03;;;;;;;3.35;3.05;;;;;;;15.08;60.24;100215.62;254478;1103;116544;-75
2021/06/18 02:22:10;;;;;;;5.03;4.05;;;;;;;14.91;60.82;100212.22;254395;1104;117200;-75
2021/06/18 02:27:17;;;;;;;;;;;;;;;14.88;61.62;100214.59;254409;1103;116619;-73
2021/06/18 02:32:23;;;;;;;5.00;4.33;;;;;;;14.82;61.92;100222.59;255978;1103;103784;-73
2021/06/18 02:37:28;;;;;;;4.18;3.78;;;;;;;14.73;61.67;100207.16;254640;1104;117822;-73
2021/06/18 02:42:32;;;;;;;6.35;3.90;;;;;;;14.69;61.96;100216.77;256301;1097;116680;-75
2021/06/18 02:47:59;;;;;;;4.60;4.15;;;;;;;14.73;62.39;100210.66;254352;1104;116199;-71
2021/06/18 02:53:09;;;;;;;;;;;;;;;14.63;62.15;100215.92;254476;1103;116809;-74
2021/06/18 02:58:19;;;;;;;4.40;4.00;;;;;;;14.57;62.99;100218.78;255612;1102;103035;-73
2021/06/18 03:03:29;;;;;;;8.43;4.13;;;;;;;14.58;62.65;100221.22;257425;1103;115419;-73
2021/06/18 03:08:41;;;;;;;8.15;4.53;;;;;;;14.70;63.40;100221.08;257369;1101;116163;-73
2021/06/18 03:13:49;;;;;;;7.18;4.28;;;;;;;14.70;62.85;100226.44;254785;1101;117413;-72
2021/06/18 03:18:55;;;;;;;6.63;4.60;;;;;;;14.59;62.96;100216.66;254716;1104;116553;-73
2021/06/18 03:24:03;;;;;;;5.90;4.95;;;;;;;14.55;63.18;100215.53;254396;1103;116841;-73
2021/06/18 03:29:07;;;;;;;6.65;3.45;;;;;;;14.56;63.62;100222.52;255481;1104;116823;-72
2021/06/18 03:34:11;;;;;;;5.13;4.65;;;;;;;14.59;64.34;100222.03;254478;1104;118013;-72
2021/06/18 03:39:15;;;;;;;5.10;4.55;;;;;;;14.84;64.49;100233.07;254371;1103;116597;-74
2021/06/18 03:44:21;;;;;;;6.40;4.98;;;;;;;15.23;64.97;100235.66;254834;1103;117287;-75
2021/06/18 03:49:25;;;;;;;;;;;;;;;15.51;65.59;100246.14;254529;1103;116719;-74
2021/06/18 03:54:32;;;;;;;4.98;4.53;;;;;;;15.80;65.30;100244.81;255118;1103;103613;-73
2021/06/18 03:59:41;;;;;;;9.70;4.83;;;;;;;16.08;64.42;100240.18;254269;1103;116754;-75
2021/06/18 04:04:45;;;;;;;4.80;4.30;;;;;;;16.18;64.46;100240.25;254361;1097;117320;-74
2021/06/18 04:09:49;;;;;;;6.35;4.95;;;;;;;16.35;64.44;100230.13;254310;1103;138100;-74
2021/06/18 04:14:55;;;;;;;10.23;5.50;;;;;;;16.59;64.53;100227.81;255142;1103;115517;-74
2021/06/18 04:20:00;;;;;;;8.90;5.98;;;;;;;16.96;64.19;100226.92;254742;1097;117321;-71
2021/06/18 04:25:05;;;;;;;8.83;5.98;;;;;;;17.33;64.41;100230.25;254347;1097;116879;-71
2021/06/18 04:30:12;;;;;;;14.15;5.03;;;;;;;17.70;64.52;100229.24;257260;1103;116960;-72
2021/06/18 04:35:16;;;;;;;5.75;5.23;;;;;;;21.15;60.53;100222.28;254591;1103;117362;-73
2021/06/18 04:40:21;;;;;;;12.17;5.93;;;;;;;26.37;54.16;100220.63;254387;1104;117309;-73
2021/06/18 04:45:25;;;;;;;12.20;6.55;;;;;;;29.16;49.97;100231.78;254222;1104;117906;-73
2021/06/18 04:50:29;;;;;;;11.80;6.58;;;;;;;29.77;47.59;100231.58;255769;1104;117273;-73
2021/06/18 04:55:32;;;;;;;7.23;5.45;;;;;;;28.54;46.51;100229.44;257452;1104;117192;-74
2021/06/18 05:00:35;;;;;;;7.38;5.65;;;;;;;27.74;46.04;100221.64;257297;1103;115315;-73
2021/06/18 05:05:38;;;;;;;14.90;5.58;;;;;;;29.52;43.36;100230.09;256803;1104;116166;-72
2021/06/18 05:10:41;;;;;;;9.15;4.03;;;;;;;32.34;40.21;100222.36;255420;1103;115354;-77
2021/06/18 05:15:43;;;;;;;2.63;2.43;;;;;;;35.76;36.60;100224.48;254599;1103;116069;-75
2021/06/18 05:20:46;;;;;;;6.63;2.35;;;;;;;38.83;33.38;100232.47;255564;1102;114968;-74
2021/06/18 05:25:48;;;;;;;3.15;2.28;;;;;;;40.97;29.85;100234.45;255511;1102;117834;-76
2021/06/18 05:30:50;;;;;;;4.93;3.10;;;;;;;42.63;27.91;100239.48;254705;1104;116843;-74
2021/06/18 05:35:53;;;;;;;3.25;1.85;;;;;;;43.82;25.36;100230.04;254198;1103;117627;-73
2021/06/18 05:40:57;;;;;;;4.93;2.20;;;;;;;44.74;23.54;100226.92;254233;1104;117013;-73
2021/06/18 05:46:00;;;;;;;1.50;1.40;;;;;;;45.55;22.11;100227.95;254046;1097;116380;-73
2021/06/18 05:51:03;;;;;;;3.38;1.80;;;;;;;46.32;21.17;100228.06;254257;1104;116834;-74
2021/06/18 05:56:07;;;;;;;6.83;1.77;;;;;;;46.82;19.52;100226.66;254113;1103;116996;-72
2021/06/18 06:01:12;;;;;;;3.17;2.07;;;;;;;47.42;18.96;100223.12;254847;1104;116067;-71
2021/06/18 06:06:33;;;;;;;4.98;1.92;;;;;;;47.90;18.77;100238.16;257349;1103;115636;-71
2021/06/18 06:11:37;;;;;;;8.18;2.45;;;;;;;48.31;18.10;100232.90;255781;1096;115951;-71
2021/06/18 06:16:41;;;;;;;5.13;2.05;;;;;;;48.67;17.50;100237.47;254954;1096;115349;-70
2021/06/18 06:21:45;;;;;;;2.58;2.38;;;;;;;48.86;17.04;100225.55;254311;1104;115460;-72
2021/06/18 06:26:48;;;;;;;2.55;1.53;;;;;;;48.99;16.94;100230.90;254531;1104;115764;-72
2021/06/18 06:31:52;;;;;;;2.88;2.43;;;;;;;49.02;16.58;100212.16;254269;1104;114992;-73
2021/06/18 06:36:56;;;;;;;3.93;2.08;;;;;;;48.99;16.16;100208.25;255880;1104;116857;-73
2021/06/18 06:42:01;;;;;;;2.13;1.87;;;;;;;48.71;16.57;100219.05;254644;1102;115779;-70
2021/06/18 06:47:08;;;;;;;2.37;2.20;;;;;;;48.43;16.53;100212.05;256351;1104;115117;-71
2021/06/18 06:52:13;;;;;;;2.55;2.05;;;;;;;48.26;16.38;100208.89;257280;1104;115519;-72
2021/06/18 06:57:21;;;;;;;1.65;1.55;;;;;;;47.46;15.99;100204.75;257157;1103;115605;-71
2021/06/18 07:02:28;;;;;;;5.00;3.36;;;;;;;46.89;17.11;100201.73;256411;1103;115640;-74
2021/06/18 07:07:32;;;;;;;6.53;2.70;;;;;;;47.18;17.12;100200.44;257205;1104;115813;-72
2021/06/18 07:12:36;;;;;;;2.70;2.50;;;;;;;47.14;17.00;100192.13;257376;1104;116970;-74
2021/06/18 07:17:40;;;;;;;4.23;2.68;;;;;;;46.95;17.19;100182.91;257280;1104;116479;-73
2021/06/18 07:22:43;;;;;;;3.98;2.00;;;;;;;46.63;17.87;100181.53;257291;1103;114990;-70
2021/06/18 07:27:46;;;;;;;3.60;1.95;;;;;;;45.68;19.08;100186.39;256340;1099;118725;-75
2021/06/18 07:32:51;;;;;;;3.10;2.83;;;;;;;44.16;18.54;100179.56;254222;1104;116179;-81
2021/06/18 07:37:55;;;;;;;4.38;2.25;;;;;;;42.74;19.35;100174.73;256621;1104;116475;-80
2021/06/18 07:43:01;;;;;;;2.40;2.20;;;;;;;41.72;20.92;100184.53;255516;1103;115973;-78
2021/06/18 07:48:09;;;;;;;3.40;2.68;;;;;;;40.60;21.86;100179.67;255939;1104;115312;-81
2021/06/18 07:53:14;;;;;;;3.45;2.50;;;;;;;39.89;23.66;100166.14;256284;1103;115665;-81
2021/06/18 07:58:17;;;;;;;4.45;2.73;;;;;;;39.83;24.67;100165.80;256033;1104;116502;-76
2021/06/18 08:03:21;;;;;;;4.00;3.00;;;;;;;39.19;24.42;100160.34;254869;1104;115205;-77
2021/06/18 08:08:25;;;;;;;6.65;3.50;;;;;;;38.51;24.73;100151.98;254822;1096;118085;-77
2021/06/18 08:13:28;;;;;;;3.05;2.75;;;;;;;37.95;24.20;100151.27;254197;1104;115533;-77
2021/06/18 08:18:35;;;;;;;3.05;2.78;;;;;;;37.38;26.66;100149.66;254232;1096;117161;-76
2021/06/18 08:23:39;;;;;;;3.10;2.75;;;;;;;37.27;27.52;100145.38;254376;1096;115509;-77
2021/06/18 08:28:42;;;;;;;3.15;2.95;;;;;;;36.81;27.46;100145.55;254118;1103;115319;-80
2021/06/18 08:33:46;;;;;;;3.35;3.05;;;;;;;36.68;28.69;100136.85;254197;1104;115912;-78
2021/06/18 08:38:50;;;;;;;3.43;3.03;;;;;;;36.80;27.80;100130.08;254638;1102;115388;-79
2021/06/18 08:43:54;;;;;;;11.73;4.77;;;;;;;36.63;29.88;100134.48;254613;1104;116236;-76
2021/06/18 08:48:56;;;;;;;4.20;3.85;;;;;;;36.74;30.03;100132.47;254226;1104;115642;-77
2021/06/18 08:54:00;;;;;;;3.53;3.25;;;;;;;36.48;28.06;100130.94;254100;1096;115306;-75
2021/06/18 08:59:02;;;;;;;;;;;;;;;35.97;29.56;100131.39;254156;1104;115635;-76
2021/06/18 09:04:09;;;;;;;6.38;3.43;;;;;;;36.10;30.54;100127.00;257531;1103;102816;-77
2021/06/18 09:09:14;;;;;;;;;;;;;;;36.16;29.50;100122.64;255166;1102;115642;-77
2021/06/18 09:14:29;;;;;;;3.65;3.35;;;;;;;36.18;29.71;100119.47;258035;1103;102380;-76
2021/06/18 09:19:33;;;;;;;4.37;3.57;;;;;;;36.21;29.98;100102.81;256712;1103;115601;-79
2021/06/18 09:24:42;;;;;;;7.53;3.30;;;;;;;36.28;29.32;100113.94;254881;1104;115313;-74
2021/06/18 09:29:44;;;;;;;4.50;3.08;;;;;;;36.17;29.82;100107.58;254235;1097;114935;-74
2021/06/18 09:40:12;;;;;;;5.63;3.88;;;;;;;35.59;29.06;100105.19;255401;1097;105486;-76
2021/06/18 09:45:17;;;;;;;3.45;3.03;;;;;;;35.27;30.03;100097.59;254479;1096;116037;-78
2021/06/18 09:50:32;;;;;;;6.20;3.68;;;;;;;35.36;30.17;100095.27;255412;1102;116122;-75
2021/06/18 09:55:35;;;;;;;4.65;4.30;;;;;;;35.33;30.38;100095.26;255372;1103;115192;-75
2021/06/18 10:00:38;;;;;;;4.63;3.98;;;;;;;35.11;30.44;100091.63;254942;1104;115776;-73
2021/06/18 10:05:42;;;;;;;3.88;3.55;;;;;;;35.25;30.56;100082.53;254420;1102;115171;-73
2021/06/18 10:10:45;;;;;;;3.75;3.50;;;;;;;35.32;30.44;100086.15;254349;1104;115645;-76
2021/06/18 10:15:47;;;;;;;4.80;3.60;;;;;;;35.39;29.77;100074.28;254394;1104;115131;-77
2021/06/18 10:20:50;;;;;;;13.58;4.83;;;;;;;35.40;29.92;100070.33;254718;1104;115844;-77
2021/06/18 10:25:59;;;;;;;4.65;3.25;;;;;;;35.21;30.21;100068.67;255202;1104;115715;-76
2021/06/18 10:31:07;;;;;;;5.87;3.90;;;;;;;35.24;30.31;100067.09;254478;1103;115507;-79
2021/06/18 10:36:25;;;;;;;4.43;4.00;;;;;;;35.13;30.13;100064.32;255607;1104;116370;-77
2021/06/18 10:41:28;;;;;;;4.70;4.40;;;;;;;34.85;30.31;100056.73;254285;1103;115156;-75
2021/06/18 10:46:33;;;;;;;3.83;3.50;;;;;;;34.78;30.92;100051.13;254261;1097;115019;-78
2021/06/18 10:51:42;;;;;;;6.65;4.80;;;;;;;34.84;30.41;100044.06;254480;1102;117009;-76
2021/06/18 10:56:46;;;;;;;4.80;4.30;;;;;;;35.00;31.03;100044.48;254197;1104;114925;-77
2021/06/18 11:01:49;;;;;;;4.25;3.95;;;;;;;35.11;30.96;100037.00;255434;1097;115710;-78
2021/06/18 11:06:52;;;;;;;4.40;4.00;;;;;;;34.95;29.97;100036.56;254264;1104;115326;-76
2021/06/18 11:11:55;;;;;;;3.97;3.53;;;;;;;34.93;30.11;100038.92;254376;1104;136033;-78
2021/06/18 11:16:58;;;;;;;4.75;4.35;;;;;;;34.76;29.37;100032.13;255947;1104;114907;-79
2021/06/18 11:22:37;;;;;;;5.48;4.05;;;;;;;34.67;29.72;100028.14;255726;1103;116601;-77
2021/06/18 11:27:40;;;;;;;5.93;4.18;;;;;;;34.70;29.84;100025.38;257261;1104;115950;-80
2021/06/18 11:32:45;;;;;;;12.57;4.57;;;;;;;34.82;29.65;100020.71;254671;1102;116287;-79
2021/06/18 11:37:49;;;;;;;3.98;3.78;;;;;;;34.76;29.58;100017.49;255388;1104;117423;-78
2021/06/18 11:42:54;;;;;;;;;;;;;;;34.62;28.88;100026.53;255119;1104;115160;-78
2021/06/18 11:47:59;;;;;;;5.78;3.45;;;;;;;34.69;29.59;100021.03;254883;1102;103110;-79
2021/06/18 11:53:02;;;;;;;4.80;3.53;;;;;;;34.65;29.65;100020.22;254214;1104;115815;-76
2021/06/18 11:58:05;;;;;;;6.28;3.90;;;;;;;34.72;30.13;100011.94;255006;1103;115342;-77
2021/06/18 12:03:08;;;;;;;4.80;4.40;;;;;;;34.69;30.02;100021.03;254637;1103;116000;-78
2021/06/18 12:08:12;;;;;;;6.45;3.85;;;;;;;34.66;29.68;100016.27;254467;1104;115665;-78
2021/06/18 12:13:16;;;;;;;4.80;3.63;;;;;;;34.60;29.11;100011.49;254675;1103;116450;-77
2021/06/18 12:18:25;;;;;;;5.78;4.60;;;;;;;34.58;29.26;100008.32;254459;1104;115728;-78
2021/06/18 12:23:28;;;;;;;5.63;3.50;;;;;;;34.57;28.70;100006.73;254819;1096;115457;-79
2021/06/18 12:28:31;;;;;;;7.48;4.15;;;;;;;34.58;28.85;99997.25;254432;1102;115982;-78
2021/06/18 12:33:35;;;;;;;13.10;4.40;;;;;;;34.44;29.31;100004.33;254427;1104;115267;-78
2021/06/18 12:38:38;;;;;;;;;;;;;;;34.56;29.25;99994.08;254413;1104;116914;-75
2021/06/18 12:43:41;;;;;;;3.98;3.68;;;;;;;34.44;28.20;100004.33;255750;1102;102977;-78
2021/06/18 12:48:44;;;;;;;6.83;4.03;;;;;;;34.49;28.73;99999.61;254272;1102;115438;-75
2021/06/18 12:53:52;;;;;;;4.18;3.98;;;;;;;34.40;28.11;99995.22;254417;1104;115773;-75
2021/06/18 12:58:56;;;;;;;3.80;3.60;;;;;;;34.37;27.24;99987.69;254341;1104;115818;-76
2021/06/18 13:04:01;;;;;;;3.05;2.85;;;;;;;34.27;27.95;99977.33;254456;1104;117044;-76
2021/06/18 13:09:11;;;;;;;4.58;4.15;;;;;;;34.22;27.80;99980.49;254622;1104;115042;-75
2021/06/18 13:14:19;;;;;;;3.30;3.10;;;;;;;34.19;27.65;99977.70;255901;1096;115027;-75
2021/06/18 13:19:50;;;;;;;99.53;12.15;;;;;;;34.13;27.25;99982.81;256538;1104;115619;-76
2021/06/18 13:25:03;;;;;;;4.30;3.68;;;;;;;33.96;26.77;99983.48;255457;1104;116128;-81
2021/06/18 13:30:12;;;;;;;6.80;3.13;;;;;;;33.90;27.81;99971.23;254373;1096;116027;-82
2021/06/18 13:35:17;;;;;;;4.37;3.87;;;;;;;33.86;27.13;99973.17;254631;1104;115504;-74
2021/06/18 13:40:37;;;;;;;5.18;4.05;;;;;;;33.87;26.71;99975.55;254626;1103;116219;-80
2021/06/18 13:45:42;;;;;;;4.23;3.70;;;;;;;33.84;27.09;99970.00;254881;1103;115746;-80
2021/06/18 13:50:48;;;;;;;3.95;3.65;;;;;;;33.61;27.46;99961.94;254746;1103;115917;-79
2021/06/18 13:55:54;;;;;;;22.48;18.73;;;;;;;33.50;27.52;99972.11;255479;1104;115558;-76
2021/06/18 14:00:58;;;;;;;4.43;4.03;;;;;;;33.47;28.26;99948.79;254378;1103;139537;-79
2021/06/18 14:06:02;;;;;;;12.45;11.43;;;;;;;33.34;27.92;99964.07;255115;1096;115195;-78
2021/06/18 14:11:07;;;;;;;;;;;;;;;33.30;27.25;99946.70;254301;1104;115778;-79
2021/06/18 14:16:12;;;;;;;11.30;10.30;;;;;;;33.37;27.72;99946.73;255298;1103;103856;-78
2021/06/18 14:21:15;;;;;;;21.10;13.78;;;;;;;33.34;27.67;99940.00;254246;1103;116390;-80
2021/06/18 14:26:24;;;;;;;15.50;12.83;;;;;;;33.29;27.83;99940.38;254516;1102;115973;-79
2021/06/18 14:31:27;;;;;;;24.33;21.48;;;;;;;33.19;28.28;99938.28;254161;1096;115560;-74
2021/06/18 14:36:32;;;;;;;42.30;34.15;;;;;;;32.98;27.56;99930.62;254796;1100;116324;-79
2021/06/18 14:41:35;;;;;;;95.60;62.45;;;;;;;32.88;27.20;99931.30;255044;1103;117357;-78
2021/06/18 14:46:39;;;;;;;60.97;38.57;;;;;;;32.77;27.42;99933.16;254320;1104;117292;-77
2021/06/18 14:51:44;;;;;;;56.70;32.20;;;;;;;32.71;27.59;99926.38;254312;1104;117093;-78
2021/06/18 14:56:48;;;;;;;70.88;51.00;;;;;;;32.72;27.86;99934.25;255227;1104;115857;-77
2021/06/18 15:01:51;;;;;;;13.40;9.45;;;;;;;32.66;27.80;99937.77;254713;1103;117254;-77
2021/06/18 15:06:55;;;;;;;7.50;6.80;;;;;;;32.50;27.94;99937.97;254757;1104;115289;-78
2021/06/18 15:11:58;;;;;;;58.33;39.95;;;;;;;32.46;28.16;99932.41;256800;1104;116014;-77
2021/06/18 15:17:02;;;;;;;6.85;6.18;;;;;;;32.39;28.06;99934.31;254735;1104;116604;-74
2021/06/18 15:22:05;;;;;;;5.08;4.68;;;;;;;32.30;27.52;99929.08;257435;1104;116049;-75
2021/06/18 15:27:08;;;;;;;4.05;3.75;;;;;;;32.15;27.42;99922.55;257381;1104;116959;-75
2021/06/18 15:32:12;;;;;;;4.75;4.30;;;;;;;32.08;27.92;99914.21;257434;1104;115468;-74
2021/06/18 15:37:15;;;;;;;3.55;3.25;;;;;;;32.00;27.62;99920.00;257275;1102;115071;-74
2021/06/18 15:42:18;;;;;;;5.33;4.83;;;;;;;31.97;27.91;99912.47;256937;1104;114975;-72
2021/06/18 15:47:22;;;;;;;6.80;4.60;;;;;;;31.95;28.63;99909.30;255588;1104;117263;-72
2021/06/18 15:52:24;;;;;;;9.48;4.23;;;;;;;31.85;28.24;99904.42;254420;1104;116781;-77
2021/06/18 15:57:27;;;;;;;5.20;4.80;;;;;;;31.74;28.26;99905.09;254425;1103;116775;-74
2021/06/18 16:02:32;;;;;;;5.33;4.93;;;;;;;31.62;28.32;99902.52;254512;1102;116157;-79
2021/06/18 16:07:38;;;;;;;4.63;4.23;;;;;;;31.51;28.51;99903.52;255113;1103;115522;-77
2021/06/18 16:12:41;;;;;;;;;;;;;;;31.25;28.96;99901.55;254311;1103;115105;-74
2021/06/18 16:17:45;;;;;;;9.45;4.65;;;;;;;31.11;28.69;99897.39;255987;1102;103084;-72
2021/06/18 16:22:48;;;;;;;7.18;5.25;;;;;;;31.10;29.33;99895.80;254349;1097;115217;-72
2021/06/18 16:27:52;;;;;;;6.97;5.33;;;;;;;31.04;29.58;99896.48;254324;1104;114882;-74
2021/06/18 16:32:55;;;;;;;4.58;4.28;;;;;;;30.95;29.91;99891.21;254367;1097;114867;-74
2021/06/18 16:37:59;;;;;;;6.45;5.10;;;;;;;30.84;30.44;99890.25;255462;1102;115362;-75
2021/06/18 16:43:01;;;;;;;4.90;4.50;;;;;;;30.69;30.04;99886.44;254201;1104;115144;-73
2021/06/18 16:48:05;;;;;;;4.98;4.68;;;;;;;30.55;30.31;99888.92;254307;1097;115387;-74
2021/06/18 16:53:10;;;;;;;5.55;5.05;;;;;;;30.44;30.58;99891.46;255290;1097;115474;-72
2021/06/18 16:58:14;;;;;;;5.58;4.93;;;;;;;30.37;30.06;99890.52;255839;1103;115699;-73
2021/06/18 17:03:17;;;;;;;6.48;4.93;;;;;;;30.30;30.54;99891.17;254321;1104;116353;-73
2021/06/18 17:08:24;;;;;;;5.48;4.98;;;;;;;30.18;31.55;99883.09;254859;1103;115548;-72
2021/06/18 17:13:49;;;;;;;4.85;4.45;;;;;;;30.02;30.99;99896.89;256158;1103;114509;-73
2021/06/18 17:18:52;;;;;;;5.33;4.85;;;;;;;29.92;31.02;99893.91;256352;1104;115889;-73
2021/06/18 17:23:55;;;;;;;5.17;4.77;;;;;;;29.80;31.95;99895.63;256329;1103;115073;-75
2021/06/18 17:29:01;;;;;;;5.13;4.73;;;;;;;29.66;32.49;99889.80;256384;1103;115417;-73
2021/06/18 17:34:04;;;;;;;4.98;4.58;;;;;;;29.46;33.43;99888.97;254682;1104;115290;-73
2021/06/18 17:39:07;;;;;;;6.43;4.93;;;;;;;29.29;34.64;99885.80;257271;1104;115604;-75
2021/06/18 17:44:10;;;;;;;5.93;4.93;;;;;;;29.11;35.51;99890.84;255336;1104;115631;-77
2021/06/18 17:49:16;;;;;;;5.48;5.08;;;;;;;28.91;37.04;99889.17;257270;1102;114747;-77
2021/06/18 17:54:20;;;;;;;7.75;6.00;;;;;;;28.70;38.02;99884.70;255719;1103;116437;-76
2021/06/18 17:59:23;;;;;;;5.15;4.75;;;;;;;28.48;39.03;99888.81;254506;1103;115407;-77
2021/06/18 18:04:26;;;;;;;5.83;5.33;;;;;;;28.25;39.53;99893.27;255064;1096;115115;-77
2021/06/18 18:09:29;;;;;;;7.23;6.45;;;;;;;28.00;39.97;99891.73;254331;1103;114889;-76
2021/06/18 18:14:32;;;;;;;6.68;6.08;;;;;;;27.74;40.86;99901.16;255397;1104;115599;-75
2021/06/18 18:19:37;;;;;;;6.68;6.08;;;;;;;27.49;41.26;99905.05;254499;1104;116195;-72
2021/06/18 18:24:42;;;;;;;9.03;5.87;;;;;;;27.23;42.35;99901.84;254287;1103;115224;-75
2021/06/18 18:29:44;;;;;;;7.15;6.53;;;;;;;26.95;43.01;99894.30;254325;1104;115372;-74
2021/06/18 18:34:50;;;;;;;7.00;6.53;;;;;;;26.65;43.36;99893.63;254215;1104;114695;-76
2021/06/18 18:39:53;;;;;;;7.83;7.13;;;;;;;26.38;44.00;99903.23;254217;1104;115577;-77
2021/06/18 18:44:56;;;;;;;7.48;6.73;;;;;;;26.06;44.67;99902.03;254118;1104;115682;-73
2021/06/18 18:49:59;;;;;;;7.55;7.05;;;;;;;25.79;45.47;99899.84;254788;1097;115788;-73
2021/06/18 18:55:03;;;;;;;7.23;6.58;;;;;;;25.53;46.22;99910.89;254367;1104;115067;-77
2021/06/18 19:00:09;;;;;;;7.90;7.13;;;;;;;25.27;46.39;99921.95;254979;1102;115473;-76
2021/06/18 19:05:15;;;;;;;17.30;8.10;;;;;;;25.03;47.39;99914.34;254323;1102;115447;-73
2021/06/18 19:10:20;;;;;;;11.58;8.45;;;;;;;24.76;47.92;99920.18;255377;1103;115854;-73
2021/06/18 19:15:24;;;;;;;20.95;8.10;;;;;;;24.57;48.29;99933.34;254193;1104;115268;-74
2021/06/18 19:20:27;;;;;;;16.40;8.60;;;;;;;24.31;49.29;99939.62;254218;1104;116233;-76
2021/06/18 19:25:34;;;;;;;18.57;9.20;;;;;;;24.03;49.57;99939.10;254361;1096;115109;-78
2021/06/18 19:30:41;;;;;;;7.90;7.13;;;;;;;23.73;50.08;99946.27;257379;1104;115580;-78
2021/06/18 19:35:46;;;;;;;8.03;7.23;;;;;;;23.55;50.69;99960.92;255347;1104;139486;-76
2021/06/18 19:40:52;;;;;;;7.20;6.58;;;;;;;23.38;50.98;99967.09;257326;1103;114785;-74
2021/06/18 19:45:59;;;;;;;10.18;6.55;;;;;;;23.28;50.69;99961.91;255944;1102;114961;-75
2021/06/18 19:51:04;;;;;;;12.90;6.78;;;;;;;23.22;50.93;99963.19;254380;1104;117310;-76
2021/06/18 19:56:08;;;;;;;7.35;6.75;;;;;;;23.17;51.06;99972.28;254955;1104;116231;-76
2021/06/18 20:01:12;;;;;;;6.85;5.88;;;;;;;23.15;51.12;99965.55;254848;1104;116350;-77
2021/06/18 20:06:16;;;;;;;6.93;5.73;;;;;;;23.13;51.47;99971.30;255517;1104;116946;-75
2021/06/18 20:11:21;;;;;;;6.75;6.18;;;;;;;23.14;51.48;99982.98;254667;1099;116658;-75
2021/06/18 20:16:25;;;;;;;6.78;5.55;;;;;;;23.13;51.60;99978.66;254288;1104;116925;-74
2021/06/18 20:21:34;;;;;;;6.45;5.70;;;;;;;23.12;51.41;99987.92;254959;1104;117135;-73
2021/06/18 20:26:38;;;;;;;6.55;6.00;;;;;;;23.12;51.58;99986.00;255186;1104;116660;-77
2021/06/18 20:31:43;;;;;;;8.13;5.55;;;;;;;23.15;51.51;99993.55;254845;1104;116135;-76
2021/06/18 20:36:47;;;;;;;11.60;5.65;;;;;;;23.18;51.22;99990.20;254455;1104;116640;-75
2021/06/18 20:41:51;;;;;;;6.80;5.40;;;;;;;23.26;51.67;99995.98;254152;1096;117072;-76
2021/06/18 20:46:55;;;;;;;7.15;5.15;;;;;;;23.32;51.57;100003.70;254337;1104;117477;-73
2021/06/18 20:51:59;;;;;;;7.77;5.60;;;;;;;23.38;51.21;99998.92;254460;1104;116816;-74
2021/06/18 20:57:03;;;;;;;5.78;5.38;;;;;;;23.43;51.09;100001.52;254370;1104;116582;-74
2021/06/18 21:02:06;;;;;;;7.48;5.05;;;;;;;23.44;51.09;100003.13;254270;1104;115871;-73
2021/06/18 21:07:09;;;;;;;9.00;6.10;;;;;;;23.43;50.95;100004.23;254371;1104;115477;-75
2021/06/18 21:12:13;;;;;;;4.95;4.65;;;;;;;23.41;51.11;100004.55;257333;1103;116085;-74
2021/06/18 21:17:16;;;;;;;8.63;5.85;;;;;;;23.42;50.69;100010.80;255483;1104;116541;-73
2021/06/18 21:22:20;;;;;;;6.78;5.75;;;;;;;23.39;50.75;100014.13;254257;1100;115822;-73
2021/06/18 21:27:26;;;;;;;8.97;5.20;;;;;;;23.34;50.90;100011.55;254229;1104;115096;-77
2021/06/18 21:32:31;;;;;;;7.30;5.13;;;;;;;23.30;51.22;100010.56;257234;1104;116806;-73
2021/06/18 21:37:36;;;;;;;5.57;4.97;;;;;;;;;;254576;1104;115922;-73
2021/06/18 21:42:41;;;;;;;6.18;5.68;;;;;;;23.16;51.47;100016.11;256602;1103;102929;-75
2021/06/18 21:47:45;;;;;;;6.10;5.50;;;;;;;23.09;51.34;100013.02;255866;1104;115265;-75
2021/06/18 21:52:50;;;;;;;13.07;5.43;;;;;;;23.04;51.45;100016.66;256153;1103;116956;-76
2021/06/18 21:57:53;;;;;;;5.58;5.18;;;;;;;22.96;51.54;100020.13;254604;1104;117024;-73
2021/06/18 22:02:57;;;;;;;7.83;6.30;;;;;;;22.92;51.76;100021.08;254872;1102;116012;-73
2021/06/18 22:08:03;;;;;;;7.65;5.75;;;;;;;22.86;51.83;100022.30;255478;1103;115921;-77
2021/06/18 22:13:09;;;;;;;16.13;5.98;;;;;;;22.78;52.16;100021.92;255616;1104;114921;-77
2021/06/18 22:18:17;;;;;;;8.80;5.85;;;;;;;22.71;52.16;100028.86;255115;1103;116508;-76
2021/06/18 22:23:21;;;;;;;5.58;5.08;;;;;;;22.67;52.25;100022.44;254418;1104;116433;-77
2021/06/18 22:28:26;;;;;;;6.25;5.70;;;;;;;22.62;52.18;100033.45;254446;1104;115219;-77
2021/06/18 22:33:32;;;;;;;6.70;5.70;;;;;;;22.54;52.41;100029.55;255225;1103;115508;-76
2021/06/18 22:38:37;;;;;;;5.90;5.35;;;;;;;22.47;52.57;100035.39;254820;1104;116305;-75
2021/06/18 22:43:40;;;;;;;7.37;5.77;;;;;;;22.37;52.77;100023.94;254884;1104;115635;-76
2021/06/18 22:48:44;;;;;;;6.53;5.80;;;;;;;22.27;53.08;100030.42;254227;1104;116084;-74
2021/06/18 22:53:47;;;;;;;8.30;5.80;;;;;;;22.15;52.93;100022.79;254285;1104;114884;-78
2021/06/18 22:58:49;;;;;;;6.48;5.85;;;;;;;22.07;53.52;100009.92;254399;1099;115575;-77
2021/06/18 23:04:00;;;;;;;8.67;6.17;;;;;;;21.97;53.54;100001.98;254412;1104;115870;-75
2021/06/18 23:09:04;;;;;;;;;;;;;;;21.86;53.94;100003.30;255155;1096;115580;-75
2021/06/18 23:14:09;;;;;;;5.93;5.50;;;;;;;21.75;53.99;100002.69;256462;1104;103010;-76
2021/06/18 23:19:12;;;;;;;6.05;5.20;;;;;;;21.68;54.06;100010.45;254199;1104;115617;-73
2021/06/18 23:24:16;;;;;;;8.28;5.90;;;;;;;21.60;54.50;99999.48;254368;1104;116217;-73